Time;durP1;ratioP1;P1;durP2;ratioP2;P2;SDS_P1;SDS_P2;PMS_P1;PMS_P2;Temp;Humidity;BMP_temperature;BMP_pressure;BME280_temperature;BME280_humidity;BME280_pressure;Samples;Min_cycle;Max_cycle;Signal;HPM_P1;HPM_P2
2021/01/25 00:01:26;;;;;;;11.48;6.63;;;-0.70;99.90;;;;;;5065844;28;20036;-66
2021/01/25 00:03:52;;;;;;;11.13;6.32;;;-0.70;99.90;;;;;;5060037;28;20112;-67
2021/01/25 00:06:18;;;;;;;13.23;5.95;;;-0.70;99.90;;;;;;5062827;28;20112;-66
2021/01/25 00:08:43;;;;;;;11.45;5.70;;;-0.70;99.90;;;;;;5063138;28;20358;-68
2021/01/25 00:11:09;;;;;;;9.05;5.90;;;-0.80;99.90;;;;;;5067359;28;20037;-68
2021/01/25 00:13:35;;;;;;;7.88;5.40;;;-0.70;99.90;;;;;;5062704;28;20036;-67
2021/01/25 00:16:00;;;;;;;8.98;5.85;;;-0.80;99.90;;;;;;5056969;28;20029;-67
2021/01/25 00:18:26;;;;;;;11.35;5.32;;;-0.80;99.90;;;;;;5053895;28;20032;-66
2021/01/25 00:20:51;;;;;;;9.77;6.07;;;-0.90;99.90;;;;;;5054060;28;20069;-67
2021/01/25 00:23:17;;;;;;;8.10;5.15;;;-0.90;99.90;;;;;;5053172;28;20507;-68
2021/01/25 00:25:43;;;;;;;11.10;5.15;;;-1.00;99.90;;;;;;5053785;28;20032;-68
2021/01/25 00:28:08;;;;;;;12.25;5.45;;;-1.00;99.90;;;;;;5054117;28;20036;-68
2021/01/25 00:30:34;;;;;;;8.18;5.40;;;-0.90;99.90;;;;;;5053640;28;20032;-67
2021/01/25 00:33:00;;;;;;;9.45;5.15;;;-0.80;99.90;;;;;;5051611;28;20028;-67
2021/01/25 00:35:25;;;;;;;8.20;4.95;;;-0.90;99.90;;;;;;5053175;28;20422;-66
2021/01/25 00:37:51;;;;;;;8.90;5.78;;;-0.90;99.90;;;;;;5051830;28;20440;-69
2021/01/25 00:40:17;;;;;;;7.10;5.10;;;-0.90;99.90;;;;;;5051846;28;20025;-66
2021/01/25 00:42:43;;;;;;;7.28;4.53;;;-0.90;99.90;;;;;;5053082;28;20069;-66
2021/01/25 00:45:09;;;;;;;8.85;4.78;;;-0.80;99.90;;;;;;5053242;28;20055;-68
2021/01/25 00:47:35;;;;;;;6.22;4.57;;;-0.90;99.90;;;;;;5054332;28;20025;-67
2021/01/25 00:50:02;;;;;;;8.02;4.80;;;-0.90;99.90;;;;;;5052929;28;20246;-68
2021/01/25 00:52:27;;;;;;;7.53;4.82;;;-0.80;99.90;;;;;;5054328;28;20017;-67
2021/01/25 00:54:53;;;;;;;10.43;4.88;;;-0.90;99.90;;;;;;5053626;28;20029;-69
2021/01/25 00:57:19;;;;;;;9.60;4.63;;;-0.90;99.90;;;;;;5054238;28;20025;-67
2021/01/25 00:59:44;;;;;;;7.63;4.63;;;-0.70;99.90;;;;;;5054199;28;20029;-67
2021/01/25 01:02:11;;;;;;;7.28;4.50;;;-0.80;99.90;;;;;;5053808;28;20025;-67
2021/01/25 01:04:36;;;;;;;5.60;4.38;;;-0.90;99.90;;;;;;5054137;28;20040;-68
2021/01/25 01:07:03;;;;;;;7.93;4.40;;;-0.90;99.90;;;;;;5054241;28;20048;-68
2021/01/25 01:09:28;;;;;;;6.55;4.60;;;-0.80;99.90;;;;;;5056176;28;20116;-68
2021/01/25 01:11:54;;;;;;;8.00;4.65;;;-0.90;99.90;;;;;;5054136;28;20029;-67
2021/01/25 01:14:20;;;;;;;7.13;4.65;;;-0.80;99.90;;;;;;5078925;23;20066;-66
2021/01/25 01:16:45;;;;;;;7.72;4.60;;;-0.70;99.90;;;;;;5064146;28;20027;-66
2021/01/25 01:19:11;;;;;;;8.07;4.43;;;-0.80;99.90;;;;;;5063973;28;20391;-66
2021/01/25 01:21:37;;;;;;;5.50;4.25;;;-0.70;99.90;;;;;;5051004;28;20474;-65
2021/01/25 01:24:03;;;;;;;7.70;4.53;;;-0.70;99.90;;;;;;5050227;28;20028;-66
2021/01/25 01:26:29;;;;;;;6.43;4.07;;;-0.70;99.90;;;;;;5050958;28;20478;-66
2021/01/25 01:28:55;;;;;;;7.35;4.72;;;-0.60;99.90;;;;;;5050933;28;20040;-67
2021/01/25 01:31:20;;;;;;;6.55;4.50;;;-0.50;99.90;;;;;;5050934;28;20033;-66
2021/01/25 01:33:46;;;;;;;8.63;4.25;;;-0.50;99.90;;;;;;5049783;28;20091;-66
2021/01/25 01:36:12;;;;;;;6.55;4.93;;;-0.50;99.90;;;;;;5050974;28;20429;-66
2021/01/25 01:38:38;;;;;;;5.90;4.70;;;-0.50;99.90;;;;;;5051057;28;20061;-66
2021/01/25 01:41:04;;;;;;;10.02;5.35;;;-0.50;99.90;;;;;;5050678;28;20024;-67
2021/01/25 01:43:30;;;;;;;7.53;4.55;;;-0.50;99.90;;;;;;5049998;28;20112;-67
2021/01/25 01:45:55;;;;;;;5.82;4.78;;;-0.40;99.90;;;;;;5050625;28;20029;-66
2021/01/25 01:48:22;;;;;;;6.38;4.85;;;-0.40;99.90;;;;;;5050640;28;20033;-67
2021/01/25 01:50:48;;;;;;;7.88;4.97;;;-0.40;99.90;;;;;;5049266;28;20155;-66
2021/01/25 01:53:13;;;;;;;9.98;4.68;;;-0.30;99.90;;;;;;5050594;28;20025;-66
2021/01/25 01:55:39;;;;;;;6.65;5.00;;;-0.40;99.90;;;;;;5054194;28;20336;-66
2021/01/25 01:58:05;;;;;;;8.60;5.47;;;-0.30;99.90;;;;;;5054274;28;20495;-65
2021/01/25 02:00:30;;;;;;;7.25;4.88;;;-0.30;99.90;;;;;;5054070;28;20402;-65
2021/01/25 02:02:56;;;;;;;10.50;5.38;;;-0.20;99.90;;;;;;5053156;28;20116;-65
2021/01/25 02:05:23;;;;;;;7.68;5.13;;;-0.20;99.90;;;;;;5053937;28;20262;-66
2021/01/25 02:07:51;;;;;;;9.48;5.00;;;-0.20;99.90;;;;;;5053878;28;20123;-66
2021/01/25 02:10:19;;;;;;;8.10;5.20;;;-0.20;99.90;;;;;;5052291;28;20031;-66
2021/01/25 02:12:48;;;;;;;8.75;5.28;;;-0.20;99.90;;;;;;5052812;28;20025;-66
2021/01/25 02:15:14;;;;;;;7.55;5.07;;;-0.10;99.90;;;;;;5053719;28;20546;-67
2021/01/25 02:17:40;;;;;;;7.65;5.50;;;-0.10;99.90;;;;;;5053589;28;20037;-65
2021/01/25 02:20:17;;;;;;;7.57;4.90;;;-0.10;99.90;;;;;;5053135;28;20021;-65
2021/01/25 02:23:05;;;;;;;10.77;5.15;;;0.00;99.90;;;;;;5052904;28;20096;-67
2021/01/25 02:26:05;;;;;;;6.25;4.80;;;-0.10;99.90;;;;;;5053358;28;20025;-65
2021/01/25 02:28:31;;;;;;;8.68;4.90;;;-0.10;99.90;;;;;;5044676;28;20036;-67
2021/01/25 02:31:01;;;;;;;8.00;5.05;;;-0.10;99.90;;;;;;5053180;28;20390;-66
2021/01/25 02:33:28;;;;;;;7.70;5.38;;;-0.10;99.90;;;;;;5052284;28;20383;-67
2021/01/25 02:35:55;;;;;;;12.40;6.55;;;-0.20;99.90;;;;;;5051571;28;20026;-67
2021/01/25 02:38:21;;;;;;;9.85;5.63;;;-0.10;99.90;;;;;;5053345;28;20429;-66
2021/01/25 02:40:49;;;;;;;8.77;5.32;;;-0.10;99.90;;;;;;5053119;28;20593;-65
2021/01/25 02:43:16;;;;;;;11.23;5.70;;;0.00;99.90;;;;;;5052453;28;20036;-66
2021/01/25 02:45:44;;;;;;;13.27;6.40;;;0.00;99.90;;;;;;5052810;28;20071;-66
2021/01/25 02:48:10;;;;;;;11.10;7.53;;;-0.20;99.90;;;;;;5052919;28;20107;-66
2021/01/25 02:50:36;;;;;;;10.98;6.72;;;-0.20;99.90;;;;;;5052936;28;20124;-66
2021/01/25 02:53:02;;;;;;;12.57;7.38;;;-0.20;99.90;;;;;;5052212;28;20036;-66
2021/01/25 02:55:28;;;;;;;12.57;8.63;;;-0.30;99.90;;;;;;5052823;28;20016;-66
2021/01/25 02:57:55;;;;;;;14.35;8.95;;;-0.50;99.90;;;;;;5053021;28;20364;-65
2021/01/25 03:00:21;;;;;;;11.18;8.10;;;-0.40;99.90;;;;;;5052571;28;20117;-66
2021/01/25 03:02:47;;;;;;;14.25;9.05;;;-0.30;99.90;;;;;;5055884;28;20057;-66
2021/01/25 03:05:13;;;;;;;13.35;8.60;;;-0.30;99.90;;;;;;5059795;28;20398;-66
2021/01/25 03:07:40;;;;;;;16.10;9.77;;;-0.40;99.90;;;;;;5052738;28;20017;-65
2021/01/25 03:10:06;;;;;;;12.82;8.77;;;-0.40;99.90;;;;;;5052395;28;20086;-66
2021/01/25 03:12:32;;;;;;;13.35;9.05;;;-0.30;99.90;;;;;;5052589;28;20096;-64
2021/01/25 03:14:58;;;;;;;15.60;8.85;;;-0.30;99.90;;;;;;5051656;28;20052;-64
2021/01/25 03:17:24;;;;;;;16.15;10.68;;;-0.30;99.90;;;;;;5052251;28;20025;-67
2021/01/25 03:19:50;;;;;;;15.35;9.52;;;-0.30;99.90;;;;;;5051427;28;20055;-65
2021/01/25 03:22:15;;;;;;;15.95;9.70;;;-0.30;99.90;;;;;;5052353;28;20107;-66
2021/01/25 03:24:41;;;;;;;14.25;9.68;;;-0.30;99.90;;;;;;5051459;28;20073;-66
2021/01/25 03:27:07;;;;;;;11.05;7.30;;;-0.30;99.90;;;;;;5052428;28;20025;-65
2021/01/25 03:29:33;;;;;;;13.00;8.52;;;-0.40;99.90;;;;;;5051801;28;20048;-66
2021/01/25 03:31:59;;;;;;;11.50;8.52;;;-0.30;99.90;;;;;;5052281;28;20074;-66
2021/01/25 03:34:25;;;;;;;13.30;8.43;;;-0.30;99.90;;;;;;5051398;28;20462;-65
2021/01/25 03:36:51;;;;;;;12.85;8.23;;;-0.20;99.90;;;;;;5051886;28;20032;-67
2021/01/25 03:39:16;;;;;;;10.00;8.10;;;-0.30;99.90;;;;;;5052119;28;20017;-66
2021/01/25 03:41:42;;;;;;;12.90;8.43;;;-0.30;99.90;;;;;;5052188;28;20142;-65
2021/01/25 03:44:08;;;;;;;10.60;8.25;;;-0.20;99.90;;;;;;5051155;28;20070;-65
2021/01/25 03:46:33;;;;;;;13.73;8.82;;;-0.20;99.90;;;;;;5052222;28;20096;-65
2021/01/25 03:48:59;;;;;;;15.43;8.88;;;-0.20;99.90;;;;;;5051819;28;20021;-65
2021/01/25 03:51:25;;;;;;;13.07;8.93;;;-0.20;99.90;;;;;;5052078;28;20085;-67
2021/01/25 03:53:51;;;;;;;13.15;8.55;;;-0.20;99.90;;;;;;5051123;28;20439;-67
2021/01/25 03:56:16;;;;;;;12.32;8.90;;;-0.20;99.90;;;;;;5051792;28;20021;-66
2021/01/25 03:58:43;;;;;;;15.30;9.18;;;-0.10;99.90;;;;;;5051615;28;20036;-66
2021/01/25 04:01:08;;;;;;;15.40;9.15;;;-0.20;99.90;;;;;;5051820;28;20021;-66
2021/01/25 04:03:34;;;;;;;11.85;8.73;;;-0.10;99.90;;;;;;5051584;28;20029;-67
2021/01/25 04:06:00;;;;;;;14.38;8.32;;;-0.10;99.90;;;;;;5052707;28;20024;-67
2021/01/25 04:08:25;;;;;;;11.60;8.30;;;-0.10;99.90;;;;;;5051966;28;20167;-67
2021/01/25 04:10:51;;;;;;;18.17;8.93;;;-0.10;99.90;;;;;;5051841;28;20021;-67
2021/01/25 04:13:16;;;;;;;12.00;9.15;;;-0.10;99.90;;;;;;5050717;28;20037;-67
2021/01/25 04:15:42;;;;;;;13.90;8.93;;;-0.10;99.90;;;;;;5051705;28;20470;-67
2021/01/25 04:18:08;;;;;;;12.57;9.50;;;-0.10;99.90;;;;;;5051446;28;20095;-66
2021/01/25 04:20:34;;;;;;;14.00;9.57;;;-0.10;99.90;;;;;;5051738;28;20025;-66
2021/01/25 04:22:59;;;;;;;14.43;9.38;;;-0.10;99.90;;;;;;5050858;28;20090;-66
2021/01/25 04:25:25;;;;;;;13.48;9.30;;;-0.10;99.90;;;;;;5051599;28;20082;-66
2021/01/25 04:27:51;;;;;;;12.05;9.13;;;-0.20;99.90;;;;;;5051186;28;20045;-66
2021/01/25 04:30:17;;;;;;;12.15;8.48;;;-0.10;99.90;;;;;;5050897;28;20146;-66
2021/01/25 04:32:43;;;;;;;11.85;8.68;;;-0.10;99.90;;;;;;5050601;28;20021;-65
2021/01/25 04:35:11;;;;;;;11.73;8.75;;;-0.10;99.90;;;;;;5051349;28;20035;-66
2021/01/25 04:37:38;;;;;;;12.90;9.80;;;-0.10;99.90;;;;;;5051458;28;20028;-66
2021/01/25 04:40:06;;;;;;;12.75;9.23;;;-0.10;99.90;;;;;;5051800;28;20057;-66
2021/01/25 04:42:32;;;;;;;12.48;9.98;;;-0.10;99.90;;;;;;5051157;28;20033;-67
2021/01/25 04:44:58;;;;;;;12.90;9.73;;;-0.10;99.90;;;;;;5051639;28;20498;-65
2021/01/25 04:47:24;;;;;;;13.70;9.82;;;-0.10;99.90;;;;;;5051760;28;20035;-66
2021/01/25 04:49:53;;;;;;;14.30;9.40;;;0.00;99.90;;;;;;5051747;28;20104;-67
2021/01/25 04:52:20;;;;;;;15.88;10.52;;;-0.10;99.90;;;;;;5051464;28;20494;-66
2021/01/25 04:54:46;;;;;;;12.40;9.27;;;-0.10;99.90;;;;;;5051175;28;20025;-67
2021/01/25 04:57:15;;;;;;;16.48;9.77;;;-0.10;99.90;;;;;;5053048;28;20025;-67
2021/01/25 04:59:44;;;;;;;14.07;9.30;;;0.00;99.90;;;;;;5051652;28;20590;-66
2021/01/25 05:02:11;;;;;;;11.88;8.80;;;0.00;99.90;;;;;;5054621;28;20040;-66
2021/01/25 05:04:37;;;;;;;11.73;8.77;;;0.00;99.90;;;;;;5066191;28;20049;-67
2021/01/25 05:07:04;;;;;;;10.98;8.52;;;0.00;99.90;;;;;;5061288;28;20021;-66
2021/01/25 05:09:30;;;;;;;13.30;9.38;;;0.00;99.90;;;;;;5061441;28;20501;-66
2021/01/25 05:12:00;;;;;;;11.88;8.93;;;0.00;99.90;;;;;;5062212;28;20080;-66
2021/01/25 05:14:43;;;;;;;13.88;9.90;;;0.00;99.90;;;;;;5061743;28;20036;-67
2021/01/25 05:17:12;;;;;;;;;;;0.00;99.90;;;;;;5061474;28;20028;-66
2021/01/25 05:19:40;;;;;;;15.13;9.30;;;0.00;99.90;;;;;;5061350;28;19904;-66
2021/01/25 05:22:19;;;;;;;20.23;10.48;;;0.00;99.90;;;;;;5060140;28;20124;-67
2021/01/25 05:24:54;;;;;;;16.50;10.15;;;0.00;99.90;;;;;;5046950;28;20541;-66
2021/01/25 05:27:30;;;;;;;15.85;9.85;;;-0.10;99.90;;;;;;5045664;28;20085;-66
2021/01/25 05:30:09;;;;;;;14.80;10.43;;;-0.10;99.90;;;;;;5049636;28;20025;-66
2021/01/25 05:32:45;;;;;;;19.48;11.27;;;0.00;99.90;;;;;;5054824;28;20116;-65
2021/01/25 05:35:11;;;;;;;17.20;10.57;;;-0.10;99.90;;;;;;5052632;28;20501;-66
2021/01/25 05:37:37;;;;;;;20.95;11.48;;;-0.10;99.90;;;;;;5054559;28;20443;-66
2021/01/25 05:40:03;;;;;;;19.73;11.75;;;-0.10;99.90;;;;;;5054500;28;20040;-66
2021/01/25 05:42:33;;;;;;;17.42;10.68;;;-0.20;99.90;;;;;;5054328;28;20033;-66
2021/01/25 05:45:07;;;;;;;16.38;11.15;;;-0.10;99.90;;;;;;5053298;28;20434;-67
2021/01/25 05:47:46;;;;;;;19.25;11.45;;;-0.10;99.90;;;;;;5054405;28;20030;-66
2021/01/25 05:50:32;;;;;;;15.02;10.45;;;-0.10;99.90;;;;;;5054255;28;20588;-66
2021/01/25 05:53:03;;;;;;;17.73;11.10;;;-0.20;99.90;;;;;;5053322;28;20037;-67
2021/01/25 05:55:29;;;;;;;20.27;11.50;;;-0.20;99.90;;;;;;5053979;28;20029;-67
2021/01/25 05:57:55;;;;;;;19.70;12.15;;;-0.10;99.90;;;;;;5054235;28;20044;-66
2021/01/25 06:00:22;;;;;;;18.95;12.52;;;-0.10;99.90;;;;;;5053702;28;20025;-66
2021/01/25 06:02:49;;;;;;;16.40;11.93;;;-0.20;99.90;;;;;;5053275;28;20049;-66
2021/01/25 06:05:28;;;;;;;20.80;14.18;;;-0.30;99.90;;;;;;5053843;28;20505;-66
2021/01/25 06:08:02;;;;;;;25.63;12.98;;;-0.20;99.90;;;;;;5053775;28;20474;-67
2021/01/25 06:10:35;;;;;;;23.73;13.13;;;-0.40;99.90;;;;;;5053865;28;20021;-67
2021/01/25 06:13:05;;;;;;;24.13;14.75;;;-0.50;99.90;;;;;;5042950;28;20025;-67
2021/01/25 06:15:33;;;;;;;24.13;13.25;;;-0.50;99.90;;;;;;5053099;28;20017;-67
2021/01/25 06:17:59;;;;;;;22.63;14.30;;;-0.60;99.90;;;;;;5053032;28;20025;-67
2021/01/25 06:20:30;;;;;;;25.00;16.08;;;-0.60;99.90;;;;;;5069668;28;20043;-67
2021/01/25 06:22:56;;;;;;;27.23;15.90;;;-0.60;99.90;;;;;;5072638;28;20071;-66
2021/01/25 06:25:24;;;;;;;27.77;17.75;;;-0.70;99.90;;;;;;5064481;28;20078;-66
2021/01/25 06:27:54;;;;;;;32.75;18.55;;;-0.60;99.90;;;;;;5053250;28;20078;-66
2021/01/25 06:30:23;;;;;;;30.30;17.63;;;-0.60;99.90;;;;;;5052831;28;20029;-66
2021/01/25 06:32:50;;;;;;;26.48;16.25;;;-0.50;99.90;;;;;;5070645;28;20048;-66
2021/01/25 06:35:16;;;;;;;28.65;17.30;;;-0.60;99.90;;;;;;5065183;28;20021;-66
2021/01/25 06:37:42;;;;;;;32.30;17.42;;;-0.60;99.90;;;;;;5052416;28;20017;-64
2021/01/25 06:40:10;;;;;;;23.73;15.13;;;-0.50;99.90;;;;;;5054019;28;20029;-67
2021/01/25 06:42:38;;;;;;;23.15;15.65;;;-0.50;99.90;;;;;;5051891;28;20041;-69
2021/01/25 06:45:06;;;;;;;25.23;16.80;;;-0.50;99.90;;;;;;5051754;28;20025;-70
2021/01/25 06:47:36;;;;;;;27.05;16.42;;;-0.40;99.90;;;;;;5052655;28;20025;-69
2021/01/25 06:50:04;;;;;;;27.15;17.60;;;-0.30;99.90;;;;;;5052717;28;20462;-68
2021/01/25 06:52:36;;;;;;;37.13;17.05;;;-0.20;99.90;;;;;;5052549;28;20029;-67
2021/01/25 06:55:06;;;;;;;24.35;15.68;;;-0.20;99.90;;;;;;5052041;28;20060;-69
2021/01/25 06:57:36;;;;;;;23.95;15.45;;;-0.20;99.90;;;;;;5055127;28;20036;-67
2021/01/25 07:00:14;;;;;;;21.95;14.43;;;-0.20;99.90;;;;;;5052273;28;20088;-66
2021/01/25 07:02:59;;;;;;;23.63;13.50;;;-0.10;99.90;;;;;;5050609;28;20021;-68
2021/01/25 07:05:27;;;;;;;19.42;13.05;;;-0.20;99.90;;;;;;5050980;28;20039;-66
2021/01/25 07:08:16;;;;;;;25.88;12.48;;;-0.10;99.90;;;;;;5054168;28;20020;-68
2021/01/25 07:11:01;;;;;;;20.67;13.32;;;-0.10;99.90;;;;;;5052215;28;20032;-68
2021/01/25 07:13:32;;;;;;;27.75;14.88;;;-0.10;99.90;;;;;;5051770;28;20029;-69
2021/01/25 07:15:58;;;;;;;34.78;17.23;;;0.00;99.90;;;;;;5051759;28;20083;-69
2021/01/25 07:18:26;;;;;;;25.67;15.95;;;0.00;99.90;;;;;;5054913;28;20096;-69
2021/01/25 07:20:54;;;;;;;34.13;18.00;;;0.00;99.90;;;;;;5056155;28;20083;-69
2021/01/25 07:23:21;;;;;;;26.33;16.77;;;0.00;99.90;;;;;;5052474;28;20031;-67
2021/01/25 07:25:55;;;;;;;24.90;15.70;;;0.10;99.90;;;;;;5052107;28;20029;-67
2021/01/25 07:28:25;;;;;;;25.77;15.40;;;0.10;99.90;;;;;;5052422;28;20048;-68
2021/01/25 07:30:51;;;;;;;30.88;16.30;;;0.10;99.90;;;;;;5050764;28;20056;-68
2021/01/25 07:33:17;;;;;;;42.42;25.55;;;0.20;99.90;;;;;;5050907;28;20032;-68
2021/01/25 07:35:44;;;;;;;37.25;22.38;;;0.40;99.90;;;;;;5051932;28;20025;-66
2021/01/25 07:38:10;;;;;;;31.33;17.30;;;0.50;99.90;;;;;;5051880;28;20099;-66
2021/01/25 07:40:35;;;;;;;23.50;14.80;;;0.50;99.90;;;;;;5051924;28;20021;-67
2021/01/25 07:43:04;;;;;;;22.85;14.30;;;0.50;99.90;;;;;;5052537;28;20029;-68
2021/01/25 07:45:29;;;;;;;32.50;14.82;;;0.60;99.90;;;;;;5047985;28;20135;-67
2021/01/25 07:47:55;;;;;;;36.10;16.35;;;0.40;99.90;;;;;;5040768;28;20108;-67
2021/01/25 07:50:21;;;;;;;31.33;14.38;;;0.40;99.90;;;;;;5044147;28;20076;-69
2021/01/25 07:53:00;;;;;;;25.08;13.73;;;0.50;99.90;;;;;;5033288;28;20105;-66
2021/01/25 07:55:27;;;;;;;26.60;14.55;;;0.40;99.90;;;;;;5054028;28;20095;-66
2021/01/25 07:57:52;;;;;;;26.40;13.02;;;0.50;99.90;;;;;;5032277;28;20029;-65
2021/01/25 08:00:19;;;;;;;23.10;13.63;;;0.50;99.90;;;;;;5038703;28;20108;-66
2021/01/25 08:02:53;;;;;;;21.70;13.40;;;0.60;99.90;;;;;;5050902;28;20021;-67
2021/01/25 08:05:20;;;;;;;22.33;13.13;;;0.60;99.90;;;;;;5051959;28;20120;-67
2021/01/25 08:07:47;;;;;;;18.33;13.20;;;0.80;99.90;;;;;;5068871;28;20024;-66
2021/01/25 08:10:14;;;;;;;21.25;12.90;;;0.80;99.90;;;;;;5071006;28;20486;-67
2021/01/25 08:12:43;;;;;;;18.25;12.50;;;0.90;99.90;;;;;;5060113;28;20027;-67
2021/01/25 08:15:11;;;;;;;17.38;11.90;;;0.90;99.90;;;;;;5051864;28;20041;-67
2021/01/25 08:17:42;;;;;;;21.17;12.77;;;1.00;99.90;;;;;;5051994;28;20024;-67
2021/01/25 08:20:14;;;;;;;21.35;13.45;;;1.00;99.90;;;;;;5051500;28;20032;-66
2021/01/25 08:22:51;;;;;;;20.15;12.73;;;1.00;99.90;;;;;;5051607;28;20025;-66
2021/01/25 08:25:20;;;;;;;19.90;12.88;;;1.10;99.90;;;;;;5051476;28;20025;-66
2021/01/25 08:28:00;;;;;;;20.05;12.65;;;1.20;99.90;;;;;;5051401;28;20074;-66
2021/01/25 08:30:47;;;;;;;22.00;13.48;;;1.10;99.90;;;;;;5051977;28;20021;-66
2021/01/25 08:33:24;;;;;;;21.25;13.63;;;1.10;99.90;;;;;;5051384;28;20036;-66
2021/01/25 08:35:50;;;;;;;21.80;13.30;;;1.00;99.90;;;;;;5051645;28;20059;-66
2021/01/25 08:38:33;;;;;;;22.65;12.40;;;1.20;99.90;;;;;;5051633;28;20433;-66
2021/01/25 08:41:01;;;;;;;18.58;13.23;;;1.30;99.90;;;;;;5051873;28;20025;-65
2021/01/25 08:43:32;;;;;;;20.30;13.55;;;1.30;99.90;;;;;;5060923;28;20032;-66
2021/01/25 08:46:15;;;;;;;19.70;13.82;;;1.10;99.90;;;;;;5073395;28;20052;-65
2021/01/25 08:48:42;;;;;;;19.38;13.57;;;1.00;99.90;;;;;;5078824;28;20039;-66
2021/01/25 08:51:15;;;;;;;20.40;12.38;;;1.00;99.90;;;;;;5064315;28;20021;-67
2021/01/25 08:53:45;;;;;;;19.33;14.15;;;0.60;99.90;;;;;;5051286;28;20131;-67
2021/01/25 08:56:19;;;;;;;23.73;15.18;;;0.80;99.90;;;;;;5051560;28;20017;-68
2021/01/25 08:58:46;;;;;;;22.05;16.00;;;0.80;99.90;;;;;;5050971;28;20025;-67
2021/01/25 09:01:27;;;;;;;21.98;14.75;;;0.80;99.90;;;;;;5050857;28;20048;-67
2021/01/25 09:03:53;;;;;;;20.03;13.53;;;0.90;99.90;;;;;;5054190;28;20394;-66
2021/01/25 09:06:19;;;;;;;20.00;14.43;;;1.00;99.90;;;;;;5055315;28;20031;-69
2021/01/25 09:08:44;;;;;;;21.58;15.75;;;1.20;99.90;;;;;;5056334;28;20064;-66
2021/01/25 09:11:10;;;;;;;18.13;14.40;;;1.60;99.90;;;;;;5055138;28;20063;-66
2021/01/25 09:13:36;;;;;;;20.45;14.07;;;1.90;99.90;;;;;;5054581;28;20032;-66
2021/01/25 09:16:02;;;;;;;19.80;15.13;;;2.20;99.90;;;;;;5055247;28;20074;-66
2021/01/25 09:18:27;;;;;;;22.63;15.15;;;2.40;99.90;;;;;;5054526;28;20029;-66
2021/01/25 09:20:53;;;;;;;22.55;14.00;;;2.60;99.90;;;;;;5054844;28;20050;-66
2021/01/25 09:23:19;;;;;;;22.33;16.10;;;2.60;99.90;;;;;;5054083;28;20021;-66
2021/01/25 09:25:46;;;;;;;19.67;14.25;;;2.40;99.90;;;;;;5054631;28;20100;-66
2021/01/25 09:28:12;;;;;;;22.25;13.60;;;2.50;99.90;;;;;;5054696;28;20025;-66
2021/01/25 09:30:38;;;;;;;21.40;14.23;;;2.50;99.90;;;;;;5054556;28;20151;-66
2021/01/25 09:33:04;;;;;;;18.25;13.45;;;2.50;99.90;;;;;;5053773;28;20103;-66
2021/01/25 09:35:30;;;;;;;25.55;14.68;;;2.30;99.90;;;;;;5055142;28;20024;-66
2021/01/25 09:37:56;;;;;;;17.50;13.98;;;2.40;99.90;;;;;;5054707;28;20339;-65
2021/01/25 09:40:21;;;;;;;18.88;14.13;;;2.40;99.90;;;;;;5054213;28;20411;-66
2021/01/25 09:42:47;;;;;;;18.70;13.80;;;2.50;99.90;;;;;;5058791;28;20028;-66
2021/01/25 09:45:16;;;;;;;19.38;13.95;;;2.50;99.90;;;;;;5074474;28;20040;-66
2021/01/25 09:47:42;;;;;;;20.83;12.93;;;2.60;99.90;;;;;;5073684;28;20438;-67
2021/01/25 09:50:13;;;;;;;18.45;13.23;;;2.60;99.90;;;;;;5074596;28;20107;-67
2021/01/25 09:52:40;;;;;;;19.90;14.00;;;2.80;99.90;;;;;;5073734;28;20050;-66
2021/01/25 09:55:07;;;;;;;19.88;13.90;;;2.50;99.90;;;;;;5073784;28;20098;-65
2021/01/25 09:57:32;;;;;;;20.75;13.63;;;2.10;99.90;;;;;;5074027;28;20086;-67
2021/01/25 09:59:58;;;;;;;19.60;13.52;;;2.30;99.90;;;;;;5073682;28;20020;-66
2021/01/25 10:02:24;;;;;;;21.38;13.95;;;2.70;99.90;;;;;;5073104;28;20031;-66
2021/01/25 10:04:49;;;;;;;19.77;12.93;;;2.50;99.90;;;;;;5053587;28;20025;-66
2021/01/25 10:07:15;;;;;;;16.98;12.60;;;2.60;99.90;;;;;;5053976;28;20471;-67
2021/01/25 10:09:41;;;;;;;19.05;13.20;;;2.90;99.90;;;;;;5053392;28;20027;-67
2021/01/25 10:12:07;;;;;;;17.52;12.88;;;2.60;99.90;;;;;;5053880;28;20429;-67
2021/01/25 10:14:33;;;;;;;14.30;12.40;;;3.00;99.90;;;;;;5052270;28;20033;-66
2021/01/25 10:16:59;;;;;;;17.83;12.43;;;3.30;99.90;;;;;;5053697;28;20360;-65
2021/01/25 10:19:25;;;;;;;13.95;12.02;;;3.30;99.90;;;;;;5053669;28;20032;-65
2021/01/25 10:21:51;;;;;;;16.35;11.02;;;3.70;99.90;;;;;;5053684;28;20028;-66
2021/01/25 10:24:16;;;;;;;15.38;11.27;;;3.80;99.90;;;;;;5052900;28;20040;-66
2021/01/25 10:26:42;;;;;;;14.82;10.70;;;4.40;99.90;;;;;;5053582;28;20056;-66
2021/01/25 10:29:08;;;;;;;17.40;11.05;;;4.80;99.90;;;;;;5053159;28;20025;-66
2021/01/25 10:31:33;;;;;;;15.10;9.88;;;5.00;99.90;;;;;;5053152;28;20083;-66
2021/01/25 10:33:59;;;;;;;18.63;11.10;;;5.10;99.90;;;;;;5052718;28;20032;-66
2021/01/25 10:36:25;;;;;;;22.77;11.32;;;5.20;99.90;;;;;;5053243;28;20056;-65
2021/01/25 10:38:51;;;;;;;21.75;12.60;;;5.20;99.90;;;;;;5055099;28;20045;-66
2021/01/25 10:41:17;;;;;;;18.83;11.82;;;5.70;99.90;;;;;;5055264;28;20061;-67
2021/01/25 10:43:43;;;;;;;13.73;9.85;;;6.20;99.90;;;;;;5053311;28;20233;-66
2021/01/25 10:46:09;;;;;;;14.63;10.40;;;6.80;99.90;;;;;;5053179;28;20029;-67
2021/01/25 10:48:35;;;;;;;16.38;12.02;;;7.40;99.90;;;;;;5053214;28;20044;-66
2021/01/25 10:51:00;;;;;;;18.98;10.68;;;7.70;99.90;;;;;;5052956;28;20479;-68
2021/01/25 10:53:26;;;;;;;14.38;10.98;;;7.80;99.90;;;;;;5052496;28;20127;-66
2021/01/25 10:55:52;;;;;;;14.25;10.50;;;8.20;99.90;;;;;;5053002;28;20055;-67
2021/01/25 10:58:18;;;;;;;13.30;8.80;;;9.00;99.90;;;;;;5053072;28;20082;-66
2021/01/25 11:00:44;;;;;;;13.80;8.27;;;10.40;99.90;;;;;;5052301;28;20090;-66
2021/01/25 11:03:10;;;;;;;8.80;6.82;;;11.60;99.90;;;;;;5052186;28;20028;-66
2021/01/25 11:05:36;;;;;;;11.07;7.50;;;12.40;99.90;;;;;;5052791;28;20521;-67
2021/01/25 11:08:02;;;;;;;13.10;7.43;;;13.50;98.70;;;;;;5052763;28;20025;-67
2021/01/25 11:10:28;;;;;;;9.80;7.40;;;13.40;95.70;;;;;;5051576;28;20025;-66
2021/01/25 11:12:54;;;;;;;9.20;6.68;;;12.50;97.20;;;;;;5052176;28;20025;-66
2021/01/25 11:15:21;;;;;;;8.93;6.45;;;11.60;98.50;;;;;;5053173;28;20025;-66
2021/01/25 11:17:47;;;;;;;11.60;7.03;;;8.40;99.90;;;;;;5053183;28;20102;-66
2021/01/25 11:20:13;;;;;;;10.70;6.30;;;8.00;99.90;;;;;;5052820;28;20546;-66
2021/01/25 11:22:40;;;;;;;7.82;5.50;;;7.90;99.90;;;;;;5061558;28;20039;-66
2021/01/25 11:25:06;;;;;;;9.60;5.10;;;7.70;99.90;;;;;;5069830;28;20017;-66
2021/01/25 11:27:31;;;;;;;8.25;4.88;;;7.60;99.90;;;;;;5069320;28;20093;-67
2021/01/25 11:29:57;;;;;;;5.38;4.88;;;6.80;99.90;;;;;;5069709;28;20131;-67
2021/01/25 11:32:23;;;;;;;6.85;5.22;;;6.40;99.90;;;;;;5069880;28;20352;-67
2021/01/25 11:34:49;;;;;;;6.82;4.60;;;6.30;99.90;;;;;;5068755;28;20032;-66
2021/01/25 11:37:15;;;;;;;4.97;4.50;;;6.00;99.90;;;;;;5068053;28;20029;-67
2021/01/25 11:39:42;;;;;;;5.38;4.88;;;6.20;99.90;;;;;;5067779;28;20021;-66
2021/01/25 11:42:08;;;;;;;6.53;4.35;;;6.10;99.90;;;;;;5067150;28;20029;-67
2021/01/25 11:44:34;;;;;;;5.25;3.03;;;6.40;99.90;;;;;;5065317;28;20088;-67
2021/01/25 11:47:06;;;;;;;5.78;3.00;;;6.10;99.90;;;;;;5104112;27;20717;-68
2021/01/25 11:49:31;;;;;;;5.05;2.33;;;6.30;99.90;;;;;;5091202;28;20025;-70
2021/01/25 11:51:57;;;;;;;2.97;2.67;;;5.80;99.90;;;;;;5089851;28;20033;-67
2021/01/25 11:54:23;;;;;;;2.88;2.28;;;5.70;99.90;;;;;;5072454;28;20032;-68
2021/01/25 11:56:48;;;;;;;2.42;2.15;;;6.20;99.90;;;;;;5069141;28;20414;-66
2021/01/25 11:59:14;;;;;;;2.30;1.92;;;6.30;99.90;;;;;;5068405;28;20680;-67
2021/01/25 12:01:40;;;;;;;1.85;1.65;;;6.20;99.90;;;;;;5068337;28;20073;-67
2021/01/25 12:04:06;;;;;;;1.33;1.23;;;5.90;99.90;;;;;;5067562;28;20459;-67
2021/01/25 12:06:32;;;;;;;1.42;1.20;;;5.40;99.90;;;;;;5068262;28;20028;-67
2021/01/25 12:08:58;;;;;;;1.23;1.13;;;5.90;99.90;;;;;;5068323;28;20031;-66
2021/01/25 12:11:25;;;;;;;1.30;1.20;;;6.10;99.90;;;;;;5067285;28;20395;-66
2021/01/25 12:13:50;;;;;;;1.35;0.90;;;6.60;99.90;;;;;;5066801;28;20017;-67
2021/01/25 12:16:16;;;;;;;1.00;1.00;;;6.60;99.90;;;;;;5067585;28;20142;-66
2021/01/25 12:18:43;;;;;;;1.88;1.20;;;6.10;99.90;;;;;;5067754;28;20029;-67
2021/01/25 12:21:09;;;;;;;1.67;0.90;;;5.60;99.90;;;;;;5067702;28;20032;-67
2021/01/25 12:23:35;;;;;;;4.28;1.83;;;5.50;99.90;;;;;;5067181;28;20082;-67
2021/01/25 12:26:01;;;;;;;1.60;1.23;;;6.40;99.90;;;;;;5067661;28;20036;-67
2021/01/25 12:28:26;;;;;;;1.65;1.15;;;6.50;99.90;;;;;;5067714;28;20100;-66
2021/01/25 12:30:52;;;;;;;3.80;1.00;;;6.10;99.90;;;;;;5067460;28;20457;-66
2021/01/25 12:33:18;;;;;;;3.35;1.40;;;5.70;99.90;;;;;;5066548;28;20023;-66
2021/01/25 12:35:44;;;;;;;0.82;0.80;;;5.90;99.90;;;;;;5067716;28;20425;-67
2021/01/25 12:38:09;;;;;;;1.67;1.00;;;5.40;99.90;;;;;;5063359;28;20041;-67
2021/01/25 12:40:35;;;;;;;8.10;1.80;;;5.40;99.90;;;;;;5053370;28;20028;-67
2021/01/25 12:43:01;;;;;;;4.30;1.10;;;5.50;99.90;;;;;;5053329;28;20033;-67